Time;durP1;ratioP1;P1;durP2;ratioP2;P2;SDS_P1;SDS_P2;PMS_P1;PMS_P2;Temp;Humidity;BMP_temperature;BMP_pressure;BME280_temperature;BME280_humidity;BME280_pressure;Samples;Min_cycle;Max_cycle;Signal;HPM_P1;HPM_P2
2020/12/29 00:00:22;;;;;;;7.10;5.43;;;;;;;-0.01;100.00;97338.59;10137759;29;20485;-75
2020/12/29 00:05:23;;;;;;;7.10;5.63;;;;;;;-0.16;100.00;97340.25;10152892;29;20048;-74
2020/12/29 00:10:25;;;;;;;7.65;5.82;;;;;;;-0.14;100.00;97355.69;10154608;29;20486;-75
2020/12/29 00:15:26;;;;;;;9.85;7.07;;;;;;;-0.27;100.00;97352.94;10132531;29;20554;-75
2020/12/29 00:20:27;;;;;;;10.77;7.50;;;;;;;-0.45;100.00;97352.16;10108762;29;20478;-75
2020/12/29 00:25:28;;;;;;;8.63;6.32;;;;;;;-0.51;100.00;97357.66;10134866;29;20458;-75
2020/12/29 00:30:30;;;;;;;9.57;6.22;;;;;;;-0.63;100.00;97350.50;10134861;29;20048;-75
2020/12/29 00:35:31;;;;;;;8.77;6.18;;;;;;;-0.67;100.00;97345.59;10135368;29;20096;-75
2020/12/29 00:40:32;;;;;;;8.57;7.35;;;;;;;-0.56;100.00;97367.38;10133174;29;20386;-75
2020/12/29 00:45:33;;;;;;;6.97;6.25;;;;;;;-0.50;100.00;97372.22;10134622;29;20047;-75
2020/12/29 00:50:34;;;;;;;7.57;5.57;;;;;;;-0.35;100.00;97365.44;10122854;29;20049;-75
2020/12/29 00:55:36;;;;;;;5.18;4.28;;;;;;;-0.48;100.00;97356.63;10127369;29;20131;-75
2020/12/29 01:00:37;;;;;;;8.93;5.53;;;;;;;-0.55;100.00;97369.06;10135244;29;20057;-75
2020/12/29 01:05:39;;;;;;;8.73;6.18;;;;;;;-0.58;100.00;97376.13;10136959;29;20105;-75
2020/12/29 01:10:41;;;;;;;6.93;5.22;;;;;;;-0.55;100.00;97383.72;10134010;29;20037;-75
2020/12/29 01:16:11;;;;;;;7.32;5.63;;;;;;;-0.61;100.00;97402.97;10091666;29;20093;-75
2020/12/29 01:21:15;;;;;;;7.30;5.87;;;;;;;-0.68;100.00;97406.78;10096279;29;20397;-74
2020/12/29 01:26:23;;;;;;;8.48;5.75;;;;;;;-0.72;100.00;97405.25;10113179;29;20131;-75
2020/12/29 01:31:29;;;;;;;7.25;5.47;;;;;;;-0.61;100.00;97412.47;10161110;29;20045;-75
2020/12/29 01:36:31;;;;;;;7.28;5.90;;;;;;;-0.57;100.00;97414.81;10108325;29;20053;-74
2020/12/29 01:41:35;;;;;;;9.52;6.13;;;;;;;-0.58;100.00;97422.66;10136402;29;20041;-75
2020/12/29 01:46:39;;;;;;;11.25;7.78;;;;;;;-0.58;100.00;97433.00;10126003;29;20497;-74
2020/12/29 01:51:40;;;;;;;9.00;6.27;;;;;;;-0.53;100.00;97449.13;10137279;29;20051;-75
2020/12/29 01:56:42;;;;;;;9.75;6.72;;;;;;;-0.55;100.00;97454.38;10159150;29;20043;-74
2020/12/29 02:01:44;;;;;;;8.27;6.10;;;;;;;-0.59;100.00;97450.28;10145803;29;20060;-74
2020/12/29 02:06:45;;;;;;;6.43;5.75;;;;;;;-0.43;100.00;97477.03;10134212;29;20060;-74
2020/12/29 02:11:46;;;;;;;6.38;4.88;;;;;;;-0.23;100.00;97488.94;10135338;29;20044;-74
2020/12/29 02:16:47;;;;;;;7.45;6.35;;;;;;;-0.16;100.00;97490.28;10134195;29;20493;-74
2020/12/29 02:21:51;;;;;;;7.10;5.43;;;;;;;-0.17;100.00;97488.59;10172731;29;20048;-74
2020/12/29 02:26:54;;;;;;;7.70;5.80;;;;;;;-0.09;100.00;97494.25;10168474;29;20429;-74
2020/12/29 02:31:55;;;;;;;7.30;6.03;;;;;;;-0.01;100.00;97496.44;10142239;29;20037;-74
2020/12/29 02:36:56;;;;;;;6.93;5.97;;;;;;;0.00;100.00;97490.34;10141937;29;20113;-74
2020/12/29 02:41:57;;;;;;;6.80;5.35;;;;;;;0.14;100.00;97503.41;10141074;29;20059;-74
2020/12/29 02:46:59;;;;;;;7.28;5.28;;;;;;;0.17;100.00;97500.63;10140447;29;20044;-74
2020/12/29 02:52:04;;;;;;;7.68;6.25;;;;;;;0.26;100.00;97507.09;10140979;29;20043;-74
2020/12/29 02:57:05;;;;;;;7.85;6.20;;;;;;;0.38;100.00;97504.72;10161203;29;20036;-74
2020/12/29 03:02:06;;;;;;;8.80;5.60;;;;;;;0.50;100.00;97517.94;10164476;29;20123;-74
2020/12/29 03:07:09;;;;;;;8.30;6.13;;;;;;;0.50;100.00;97505.81;10138513;29;20510;-74
2020/12/29 03:12:11;;;;;;;6.30;5.70;;;;;;;0.53;100.00;97516.00;10122852;29;20131;-74
2020/12/29 03:17:13;;;;;;;7.55;6.18;;;;;;;0.54;100.00;97522.84;10140149;29;20055;-74
2020/12/29 03:22:14;;;;;;;6.88;5.28;;;;;;;0.59;100.00;97530.34;10140834;29;20045;-74
2020/12/29 03:27:15;;;;;;;5.90;5.13;;;;;;;0.70;100.00;97535.81;10139065;29;20122;-74
2020/12/29 03:32:17;;;;;;;7.97;5.40;;;;;;;0.68;100.00;97537.63;10138079;29;20076;-74
2020/12/29 03:37:18;;;;;;;8.27;6.00;;;;;;;0.68;100.00;97550.59;10138722;29;20642;-74
2020/12/29 03:42:19;;;;;;;6.65;5.95;;;;;;;0.70;100.00;97556.53;10139095;29;20052;-74
2020/12/29 03:47:20;;;;;;;8.00;6.13;;;;;;;0.73;100.00;97551.19;10123121;29;20104;-74
2020/12/29 03:52:21;;;;;;;7.00;5.97;;;;;;;0.63;100.00;97557.78;10139217;29;20484;-74
2020/12/29 03:57:22;;;;;;;9.02;6.55;;;;;;;0.71;100.00;97571.16;10165092;29;20374;-74
2020/12/29 04:02:23;;;;;;;7.45;5.95;;;;;;;0.74;100.00;97576.19;10146571;29;20051;-74
2020/12/29 04:07:24;;;;;;;8.80;6.55;;;;;;;0.72;100.00;97576.28;10138691;29;20040;-74
2020/12/29 04:12:25;;;;;;;7.93;5.90;;;;;;;0.71;100.00;97582.38;10139006;29;20059;-74
2020/12/29 04:17:32;;;;;;;6.90;5.47;;;;;;;0.67;100.00;97588.63;10137878;29;20169;-75
2020/12/29 04:22:34;;;;;;;9.57;6.57;;;;;;;0.65;100.00;97597.41;10137865;29;20048;-74
2020/12/29 04:27:36;;;;;;;6.75;5.57;;;;;;;0.46;100.00;97591.50;10137398;29;20071;-74
2020/12/29 04:32:38;;;;;;;7.60;5.82;;;;;;;0.28;100.00;97583.75;10137377;29;20057;-74
2020/12/29 04:37:39;;;;;;;8.85;6.30;;;;;;;0.18;100.00;97598.09;10137132;29;20045;-75
2020/12/29 04:42:41;;;;;;;6.60;5.50;;;;;;;0.11;100.00;97612.25;10137345;29;20048;-74
2020/12/29 04:47:43;;;;;;;6.55;5.30;;;;;;;0.03;100.00;97609.22;10137713;29;20045;-74
2020/12/29 04:52:46;;;;;;;6.97;5.65;;;;;;;-0.07;100.00;97619.19;10137095;29;20396;-74
2020/12/29 04:57:54;;;;;;;6.85;5.90;;;;;;;-0.25;100.00;97627.03;10142408;29;20052;-74
2020/12/29 05:02:55;;;;;;;7.43;6.65;;;;;;;-0.45;100.00;97621.06;10137374;29;20485;-74
2020/12/29 05:07:56;;;;;;;8.63;6.03;;;;;;;-0.52;100.00;97630.03;10136819;29;20053;-74
2020/12/29 05:12:57;;;;;;;8.73;6.75;;;;;;;-0.67;100.00;97624.75;10136667;29;20116;-74
2020/12/29 05:18:02;;;;;;;7.88;6.13;;;;;;;-0.64;100.00;97648.69;10137356;29;20045;-74
2020/12/29 05:23:04;;;;;;;8.98;6.22;;;;;;;-0.63;100.00;97675.38;10136315;29;20504;-75
2020/12/29 05:28:06;;;;;;;7.20;6.13;;;;;;;-0.76;100.00;97677.72;10135684;29;20100;-74
2020/12/29 05:33:12;;;;;;;9.43;6.28;;;;;;;-0.65;100.00;97696.13;10129670;29;20053;-74
2020/12/29 05:38:14;;;;;;;8.32;6.32;;;;;;;-0.71;100.00;97700.75;10126670;29;20048;-74
2020/12/29 05:43:32;;;;;;;8.38;6.05;;;;;;;-0.69;100.00;97709.28;10117800;29;20426;-74
2020/12/29 05:48:33;;;;;;;7.03;5.68;;;;;;;-0.90;100.00;97698.16;10122561;29;20059;-74
2020/12/29 05:53:35;;;;;;;8.98;7.35;;;;;;;-1.00;100.00;97708.03;10114452;29;20520;-74
2020/12/29 05:58:41;;;;;;;8.73;6.78;;;;;;;-0.97;100.00;97732.91;10125542;29;20135;-74
2020/12/29 06:03:44;;;;;;;8.45;6.82;;;;;;;-0.87;100.00;97744.53;10108700;29;20049;-74
2020/12/29 06:08:50;;;;;;;14.05;7.97;;;;;;;-0.88;100.00;97755.78;10131718;29;20104;-74
2020/12/29 06:13:52;;;;;;;11.02;7.82;;;;;;;-0.84;100.00;97754.75;10143680;29;20048;-74
2020/12/29 06:18:58;;;;;;;12.80;8.57;;;;;;;-0.83;100.00;97767.56;10125582;29;20048;-74
2020/12/29 06:24:01;;;;;;;12.68;10.13;;;;;;;-0.55;100.00;97800.81;10142930;29;20415;-74
2020/12/29 06:29:02;;;;;;;10.98;8.80;;;;;;;-0.44;100.00;97815.84;10142838;29;20092;-74
2020/12/29 06:34:06;;;;;;;12.00;8.60;;;;;;;-0.50;100.00;97816.09;10141725;29;20501;-74
2020/12/29 06:39:09;;;;;;;10.15;7.95;;;;;;;-0.60;100.00;97820.88;10142076;29;20072;-74
2020/12/29 06:44:12;;;;;;;14.23;9.27;;;;;;;-0.60;100.00;97831.19;10141252;29;20048;-74
2020/12/29 06:49:21;;;;;;;13.00;9.05;;;;;;;-0.40;100.00;97859.59;10141560;29;20051;-74
2020/12/29 06:54:48;;;;;;;11.38;8.48;;;;;;;-0.30;100.00;97872.13;10142015;29;20052;-74
2020/12/29 06:59:50;;;;;;;13.20;8.82;;;;;;;-0.16;100.00;97880.09;10140553;29;20453;-74
2020/12/29 07:04:53;;;;;;;14.85;8.60;;;;;;;-0.14;100.00;97883.44;10140932;29;20052;-74
2020/12/29 07:10:21;;;;;;;11.32;7.95;;;;;;;-0.17;100.00;97899.13;10139696;29;20434;-74
2020/12/29 07:15:23;;;;;;;10.38;8.85;;;;;;;-0.18;100.00;97902.63;10137466;29;20490;-74
2020/12/29 07:20:29;;;;;;;13.40;8.70;;;;;;;-0.13;100.00;97905.84;10140605;29;20186;-74
2020/12/29 07:25:31;;;;;;;10.55;8.23;;;;;;;-0.14;100.00;97902.41;10139891;29;20041;-74
2020/12/29 07:30:35;;;;;;;14.45;9.95;;;;;;;-0.07;100.00;97939.19;10139960;29;20075;-74
2020/12/29 07:35:39;;;;;;;11.27;8.00;;;;;;;0.00;100.00;97946.59;10138233;29;20549;-74
2020/12/29 07:40:43;;;;;;;11.67;7.43;;;;;;;0.09;100.00;97947.09;10139016;29;20056;-74
2020/12/29 07:45:44;;;;;;;14.05;8.30;;;;;;;0.16;100.00;97957.16;10140032;29;20057;-74
2020/12/29 07:50:46;;;;;;;12.55;9.38;;;;;;;0.15;100.00;97949.44;10139917;29;20450;-74
2020/12/29 07:55:47;;;;;;;15.20;8.98;;;;;;;0.32;100.00;97973.66;10131352;29;20119;-74
2020/12/29 08:00:48;;;;;;;15.05;8.65;;;;;;;0.43;100.00;97983.50;10139444;29;20104;-74
2020/12/29 08:05:49;;;;;;;17.00;11.30;;;;;;;0.63;100.00;98005.94;10122721;29;20048;-74
2020/12/29 08:10:50;;;;;;;15.10;10.77;;;;;;;0.73;100.00;98007.19;10120714;29;20040;-74
2020/12/29 08:15:54;;;;;;;13.65;8.50;;;;;;;0.75;100.00;98010.56;10137948;29;20446;-74
2020/12/29 08:20:57;;;;;;;13.25;8.57;;;;;;;0.87;100.00;98009.13;10135117;29;20044;-74
2020/12/29 08:26:00;;;;;;;12.15;9.25;;;;;;;0.99;100.00;98030.16;10137662;29;20059;-74
2020/12/29 08:31:04;;;;;;;15.13;9.93;;;;;;;1.07;100.00;98030.63;10121976;29;20053;-73
2020/12/29 08:36:08;;;;;;;12.52;8.55;;;;;;;1.18;100.00;98042.22;10138068;29;20048;-74
2020/12/29 08:41:14;;;;;;;12.90;8.13;;;;;;;1.20;100.00;98037.81;10136456;29;20508;-74
2020/12/29 08:46:21;;;;;;;10.48;7.55;;;;;;;1.41;100.00;98060.97;10137149;29;20449;-74
2020/12/29 08:51:27;;;;;;;16.23;8.40;;;;;;;1.55;100.00;98065.47;10137489;29;20049;-73
2020/12/29 08:56:28;;;;;;;17.48;10.60;;;;;;;1.43;100.00;98050.50;10136597;29;20056;-74
2020/12/29 09:01:35;;;;;;;10.60;7.90;;;;;;;1.45;100.00;98075.47;10136676;29;20052;-74
2020/12/29 09:06:36;;;;;;;11.90;8.05;;;;;;;1.56;100.00;98082.72;10136609;29;20048;-74
2020/12/29 09:11:37;;;;;;;11.40;7.38;;;;;;;1.78;100.00;98085.94;10135944;29;20053;-73
2020/12/29 09:16:38;;;;;;;11.50;7.60;;;;;;;2.05;100.00;98088.09;10135686;29;20048;-73
2020/12/29 09:21:39;;;;;;;14.93;8.50;;;;;;;2.10;100.00;98091.28;10136126;29;20064;-74
2020/12/29 09:26:48;;;;;;;13.63;9.07;;;;;;;2.06;100.00;98092.38;10132691;29;20043;-74
2020/12/29 09:31:54;;;;;;;14.57;9.02;;;;;;;2.05;100.00;98108.88;10131385;29;20092;-73
2020/12/29 09:36:55;;;;;;;16.30;10.35;;;;;;;2.16;100.00;98111.78;10108118;29;20393;-73
2020/12/29 09:41:56;;;;;;;15.48;10.85;;;;;;;2.23;100.00;98123.53;10127053;29;20041;-73
2020/12/29 09:46:57;;;;;;;19.55;11.13;;;;;;;2.31;100.00;98128.34;10135252;29;20045;-73
2020/12/29 09:51:59;;;;;;;21.67;12.77;;;;;;;2.36;100.00;98134.97;10132583;29;20044;-73
2020/12/29 09:57:00;;;;;;;26.08;16.30;;;;;;;2.29;100.00;98149.19;10115147;29;20059;-73
2020/12/29 10:02:01;;;;;;;17.95;12.65;;;;;;;2.37;100.00;98188.63;10126153;29;20044;-72
2020/12/29 10:07:03;;;;;;;16.52;12.38;;;;;;;2.47;100.00;98200.25;10130068;29;20048;-72
2020/12/29 10:12:06;;;;;;;21.77;13.63;;;;;;;2.66;100.00;98205.34;10125779;29;20036;-74
2020/12/29 10:17:07;;;;;;;18.63;13.10;;;;;;;3.02;100.00;98211.25;10133046;29;20036;-74
2020/12/29 10:22:08;;;;;;;19.88;14.85;;;;;;;3.21;100.00;98224.13;10117408;29;20055;-74
2020/12/29 10:27:09;;;;;;;22.20;14.57;;;;;;;3.50;100.00;98216.56;10130810;29;20401;-74
2020/12/29 10:32:10;;;;;;;18.38;14.38;;;;;;;3.47;100.00;98216.72;10129753;29;20053;-74
2020/12/29 10:37:11;;;;;;;19.13;15.15;;;;;;;3.37;100.00;98206.78;10125485;29;20044;-74
2020/12/29 10:42:13;;;;;;;19.85;15.38;;;;;;;3.28;100.00;98217.69;10134433;29;20045;-74
2020/12/29 10:47:14;;;;;;;23.95;16.90;;;;;;;3.23;100.00;98216.25;10123948;29;20545;-74
2020/12/29 10:52:15;;;;;;;25.20;17.13;;;;;;;3.26;100.00;98224.75;10139782;29;20045;-75
2020/12/29 10:57:17;;;;;;;23.90;15.93;;;;;;;3.41;100.00;98231.75;10136744;29;20036;-74
2020/12/29 11:02:18;;;;;;;25.02;16.40;;;;;;;3.52;100.00;98243.31;10140686;29;20478;-74
2020/12/29 11:07:19;;;;;;;23.67;17.38;;;;;;;3.56;100.00;98252.66;10140457;29;20112;-74
2020/12/29 11:12:20;;;;;;;27.70;17.13;;;;;;;3.58;100.00;98267.28;10140241;29;20044;-74
2020/12/29 11:17:22;;;;;;;27.15;17.38;;;;;;;3.63;100.00;98270.47;10139081;29;20104;-74
2020/12/29 11:22:23;;;;;;;21.50;15.90;;;;;;;3.70;100.00;98269.22;10140625;29;20050;-74
2020/12/29 11:27:24;;;;;;;24.17;17.17;;;;;;;3.82;100.00;98270.31;10138784;29;20092;-73
2020/12/29 11:32:25;;;;;;;22.02;16.15;;;;;;;3.92;100.00;98278.47;10118856;29;20056;-74
2020/12/29 11:37:26;;;;;;;23.63;15.93;;;;;;;3.95;100.00;98270.47;10140922;29;20058;-73
2020/12/29 11:42:27;;;;;;;23.13;14.77;;;;;;;4.12;100.00;98270.38;10136604;29;20037;-73
2020/12/29 11:47:28;;;;;;;23.25;14.45;;;;;;;3.96;100.00;98243.50;10137866;29;20126;-73
2020/12/29 11:52:30;;;;;;;17.27;12.98;;;;;;;4.07;100.00;98256.78;10125815;29;20073;-73
2020/12/29 11:57:31;;;;;;;20.52;12.88;;;;;;;4.08;100.00;98241.06;10138154;29;20483;-74
2020/12/29 12:02:34;;;;;;;16.83;11.80;;;;;;;4.37;100.00;98249.00;10138681;29;20051;-73
2020/12/29 12:07:35;;;;;;;20.33;13.10;;;;;;;4.11;100.00;98229.63;10135578;29;20057;-72
2020/12/29 12:12:36;;;;;;;18.08;11.50;;;;;;;4.16;100.00;98243.25;10108464;29;20052;-73
2020/12/29 12:17:38;;;;;;;17.70;11.77;;;;;;;4.27;100.00;98256.50;10100551;29;20056;-72
2020/12/29 12:22:39;;;;;;;15.40;11.45;;;;;;;4.36;100.00;98258.59;10127648;29;20044;-73
2020/12/29 12:27:40;;;;;;;14.93;9.93;;;;;;;4.54;100.00;98259.31;10137682;29;20055;-71
2020/12/29 12:32:41;;;;;;;16.77;11.10;;;;;;;4.54;100.00;98259.31;10134935;29;20049;-72
2020/12/29 12:37:43;;;;;;;18.00;10.35;;;;;;;4.66;100.00;98242.97;10141942;29;20046;-72
2020/12/29 12:42:44;;;;;;;15.48;9.80;;;;;;;4.74;100.00;98239.91;10136009;29;20052;-72
2020/12/29 12:47:45;;;;;;;15.48;9.98;;;;;;;4.83;100.00;98249.81;10137607;29;20052;-72
2020/12/29 12:52:46;;;;;;;15.00;10.23;;;;;;;4.89;100.00;98245.06;10137367;29;20040;-72
2020/12/29 12:57:47;;;;;;;13.82;9.40;;;;;;;4.96;100.00;98243.75;10137283;29;20040;-72
2020/12/29 13:02:48;;;;;;;16.17;10.80;;;;;;;5.07;100.00;98250.97;10135134;29;20060;-72
2020/12/29 13:07:49;;;;;;;14.05;9.90;;;;;;;5.26;100.00;98271.59;10136196;29;20040;-72
2020/12/29 13:12:50;;;;;;;12.73;9.15;;;;;;;5.31;100.00;98261.69;10136899;29;20052;-72
2020/12/29 13:17:51;;;;;;;13.52;9.13;;;;;;;5.51;100.00;98263.13;10135465;29;20075;-72
2020/12/29 13:22:52;;;;;;;12.93;8.18;;;;;;;5.43;100.00;98268.81;10136043;29;20044;-72
2020/12/29 13:27:54;;;;;;;14.88;8.52;;;;;;;6.07;100.00;98273.50;10132734;29;20044;-72
2020/12/29 13:32:55;;;;;;;11.45;8.07;;;;;;;5.43;99.53;98232.25;10130979;29;20060;-72
2020/12/29 13:37:56;;;;;;;14.10;8.50;;;;;;;5.37;100.00;98248.25;10147028;29;20405;-72
2020/12/29 13:42:57;;;;;;;11.90;8.23;;;;;;;5.03;100.00;98228.56;10172311;29;20036;-73
2020/12/29 13:47:58;;;;;;;12.80;7.72;;;;;;;4.88;100.00;98258.19;10133490;29;20067;-72
2020/12/29 13:52:59;;;;;;;12.52;8.55;;;;;;;4.60;100.00;98264.19;10170435;29;20048;-72
2020/12/29 13:58:01;;;;;;;11.80;8.55;;;;;;;4.55;100.00;98281.84;10156204;29;20080;-72
2020/12/29 14:03:03;;;;;;;12.60;8.82;;;;;;;4.43;100.00;98293.00;10135114;29;20044;-72
2020/12/29 14:08:05;;;;;;;13.05;8.75;;;;;;;4.32;100.00;98295.34;10134397;29;20500;-72
2020/12/29 14:13:06;;;;;;;12.93;8.80;;;;;;;4.21;100.00;98314.19;10134607;29;20096;-72
2020/12/29 14:18:07;;;;;;;14.02;9.18;;;;;;;4.11;100.00;98324.25;10140966;29;20045;-72
2020/12/29 14:23:08;;;;;;;12.50;8.43;;;;;;;3.97;100.00;98334.59;10143076;29;20052;-72
2020/12/29 14:28:09;;;;;;;13.13;9.30;;;;;;;3.95;100.00;98354.66;10141994;29;20100;-72
2020/12/29 14:33:11;;;;;;;14.40;9.25;;;;;;;3.94;100.00;98368.63;10142520;29;20061;-72
2020/12/29 14:38:13;;;;;;;14.75;9.90;;;;;;;3.81;100.00;98370.19;10140738;29;20088;-72
2020/12/29 14:43:14;;;;;;;14.20;10.20;;;;;;;3.69;100.00;98373.44;10141941;29;20405;-72
2020/12/29 14:48:16;;;;;;;12.80;9.05;;;;;;;3.59;100.00;98393.91;10141797;29;20052;-72
2020/12/29 14:53:17;;;;;;;16.38;10.55;;;;;;;3.48;100.00;98396.22;10141459;29;20065;-72
2020/12/29 14:58:18;;;;;;;14.95;10.25;;;;;;;3.53;100.00;98419.41;10124248;29;20052;-72
2020/12/29 15:03:19;;;;;;;14.48;10.35;;;;;;;3.46;100.00;98424.06;10140754;29;20495;-72
2020/12/29 15:08:20;;;;;;;16.55;10.05;;;;;;;3.44;100.00;98429.34;10141353;29;20041;-72
2020/12/29 15:13:22;;;;;;;15.00;9.38;;;;;;;3.46;100.00;98450.09;10140593;29;20040;-73
2020/12/29 15:18:23;;;;;;;12.55;8.98;;;;;;;3.50;100.00;98467.28;10140030;29;20044;-72
2020/12/29 15:23:24;;;;;;;10.90;8.23;;;;;;;3.49;100.00;98473.41;10140215;29;20097;-72
2020/12/29 15:28:25;;;;;;;11.88;8.60;;;;;;;3.53;100.00;98471.47;10139765;29;20052;-72
2020/12/29 15:33:26;;;;;;;15.35;8.52;;;;;;;3.62;100.00;98484.03;10137140;29;20061;-72
2020/12/29 15:38:27;;;;;;;10.85;7.72;;;;;;;3.67;100.00;98489.84;10138760;29;20056;-72
2020/12/29 15:43:29;;;;;;;13.50;8.15;;;;;;;3.67;100.00;98490.69;10139605;29;20049;-73
2020/12/29 15:48:30;;;;;;;12.10;8.23;;;;;;;3.61;100.00;98492.75;10139496;29;20053;-73
2020/12/29 15:53:31;;;;;;;13.00;8.27;;;;;;;3.64;100.00;98510.84;10138333;29;20112;-72
2020/12/29 15:58:32;;;;;;;10.63;8.88;;;;;;;3.65;100.00;98515.13;10138870;29;20048;-73
2020/12/29 16:03:33;;;;;;;13.75;10.40;;;;;;;3.76;100.00;98516.28;10125375;29;20512;-74
2020/12/29 16:08:34;;;;;;;11.70;7.88;;;;;;;3.90;100.00;98541.63;10126428;29;20524;-74
2020/12/29 16:13:36;;;;;;;11.20;8.35;;;;;;;3.60;100.00;98525.75;10135218;29;20060;-75
2020/12/29 16:18:37;;;;;;;14.98;13.02;;;;;;;3.54;100.00;98539.06;10137013;29;20048;-74
2020/12/29 16:23:38;;;;;;;14.60;8.93;;;;;;;3.49;100.00;98545.44;10136403;29;20045;-74
2020/12/29 16:28:39;;;;;;;11.85;8.02;;;;;;;3.32;100.00;98538.44;10136893;29;20496;-74
2020/12/29 16:33:41;;;;;;;13.13;9.95;;;;;;;3.21;100.00;98546.75;10137007;29;20053;-74
2020/12/29 16:38:42;;;;;;;15.77;8.65;;;;;;;3.15;100.00;98551.41;10134872;29;20446;-74
2020/12/29 16:43:43;;;;;;;12.95;8.35;;;;;;;3.03;100.00;98566.66;10136082;29;20513;-74
2020/12/29 16:48:44;;;;;;;11.13;7.65;;;;;;;2.96;100.00;98591.28;10135937;29;20941;-76
2020/12/29 16:53:46;;;;;;;20.55;15.60;;;;;;;3.01;100.00;98602.28;10119888;29;20477;-75
2020/12/29 16:58:47;;;;;;;12.20;9.63;;;;;;;3.06;100.00;98612.50;10136425;29;20053;-75
2020/12/29 17:03:49;;;;;;;15.32;10.75;;;;;;;3.13;100.00;98618.25;10135376;29;20056;-75
2020/12/29 17:08:50;;;;;;;17.38;13.88;;;;;;;3.22;100.00;98623.88;10128694;29;20044;-75
2020/12/29 17:13:51;;;;;;;14.07;9.50;;;;;;;3.35;100.00;98637.16;10139973;29;20052;-75
2020/12/29 17:18:53;;;;;;;12.52;8.40;;;;;;;3.39;100.00;98642.16;10107443;29;20045;-76
2020/12/29 17:23:55;;;;;;;12.77;8.07;;;;;;;3.28;100.00;98657.44;10114292;29;20048;-75
2020/12/29 17:29:00;;;;;;;9.63;8.00;;;;;;;3.25;100.00;98656.75;10149098;29;20063;-75
2020/12/29 17:34:01;;;;;;;14.23;9.00;;;;;;;3.16;100.00;98650.19;10117190;29;20057;-75
2020/12/29 17:39:04;;;;;;;10.23;8.35;;;;;;;3.08;100.00;98652.31;10133215;29;20048;-76
2020/12/29 17:44:05;;;;;;;15.35;11.40;;;;;;;3.04;100.00;98659.38;10142831;29;20052;-76
2020/12/29 17:49:06;;;;;;;18.48;12.05;;;;;;;2.97;100.00;98660.59;10115515;29;20088;-76
2020/12/29 17:54:07;;;;;;;38.92;29.75;;;;;;;3.01;100.00;98675.13;10146220;29;20036;-76
2020/12/29 17:59:08;;;;;;;77.88;47.63;;;;;;;3.11;100.00;98679.91;10145379;29;20115;-76
2020/12/29 18:04:09;;;;;;;114.20;75.15;;;;;;;3.26;100.00;98703.50;10145204;29;20045;-75
2020/12/29 18:09:11;;;;;;;29.02;23.38;;;;;;;3.24;100.00;98692.31;10147010;29;20051;-75
2020/12/29 18:14:12;;;;;;;39.47;32.00;;;;;;;3.09;100.00;98690.41;10131135;29;20059;-75
2020/12/29 18:19:13;;;;;;;25.13;19.17;;;;;;;2.95;100.00;98688.41;10176317;29;20365;-75
2020/12/29 18:24:14;;;;;;;14.00;9.38;;;;;;;2.70;100.00;98689.53;10186062;29;20377;-76
2020/12/29 18:29:15;;;;;;;10.88;7.68;;;;;;;2.50;100.00;98688.66;10153927;29;20052;-75
2020/12/29 18:34:16;;;;;;;10.98;8.02;;;;;;;2.34;100.00;98711.00;10145842;29;20068;-75
2020/12/29 18:39:20;;;;;;;13.77;8.88;;;;;;;2.34;100.00;98729.19;10144944;29;20215;-75
2020/12/29 18:44:21;;;;;;;11.23;8.32;;;;;;;2.40;100.00;98749.72;10146986;29;20047;-75
2020/12/29 18:49:22;;;;;;;14.57;7.68;;;;;;;2.27;100.00;98743.31;10143389;29;20454;-75
2020/12/29 18:54:23;;;;;;;12.55;9.07;;;;;;;2.21;100.00;98766.94;10128922;29;20041;-76
2020/12/29 18:59:24;;;;;;;12.25;7.82;;;;;;;2.04;100.00;98770.22;10145866;29;20040;-75
2020/12/29 19:04:26;;;;;;;11.38;7.72;;;;;;;1.99;100.00;98779.94;10138057;29;20045;-75
2020/12/29 19:09:27;;;;;;;19.08;11.88;;;;;;;2.00;100.00;98796.38;10139890;29;20051;-76
2020/12/29 19:14:28;;;;;;;15.30;11.25;;;;;;;2.19;100.00;98823.31;10139471;29;20051;-76
2020/12/29 19:19:31;;;;;;;19.70;14.18;;;;;;;2.06;100.00;98822.94;10170882;29;20044;-76
2020/12/29 19:24:34;;;;;;;;;;;;;;;1.89;100.00;98812.34;10141044;29;20434;-76
2020/12/29 19:29:37;;;;;;;23.23;16.75;;;;;;;1.75;100.00;98818.06;10139130;29;19923;-75
2020/12/29 19:34:38;;;;;;;11.65;9.57;;;;;;;1.66;100.00;98831.38;10129702;29;20049;-76
2020/12/29 19:39:42;;;;;;;16.40;10.88;;;;;;;1.60;100.00;98828.16;10134585;29;20044;-76
2020/12/29 19:44:43;;;;;;;12.77;8.63;;;;;;;1.74;100.00;98842.34;10131128;29;20052;-75
2020/12/29 19:49:45;;;;;;;12.13;8.70;;;;;;;1.75;100.00;98845.78;10127708;29;20048;-75
2020/12/29 19:54:46;;;;;;;13.18;7.90;;;;;;;1.78;100.00;98858.63;10137688;29;20059;-75
2020/12/29 19:59:47;;;;;;;10.75;7.10;;;;;;;1.72;100.00;98859.72;10137004;29;20060;-75
2020/12/29 20:04:48;;;;;;;10.70;7.18;;;;;;;1.81;100.00;98866.31;10132631;29;20561;-75
2020/12/29 20:09:49;;;;;;;11.98;8.38;;;;;;;1.67;100.00;98860.78;10106056;29;20485;-76
2020/12/29 20:14:50;;;;;;;12.20;7.97;;;;;;;1.42;100.00;98851.25;10132796;29;20421;-75
2020/12/29 20:19:51;;;;;;;21.90;15.18;;;;;;;1.35;100.00;98859.31;10139420;29;20114;-76
2020/12/29 20:24:53;;;;;;;17.27;11.60;;;;;;;1.33;100.00;98871.53;10136396;29;20120;-76
2020/12/29 20:29:56;;;;;;;20.77;14.82;;;;;;;1.56;100.00;98904.44;10137100;29;20045;-75
2020/12/29 20:34:57;;;;;;;30.33;21.52;;;;;;;1.61;100.00;98903.34;10136855;29;20063;-75
2020/12/29 20:39:58;;;;;;;23.65;17.50;;;;;;;1.55;100.00;98894.94;10118130;29;20041;-75
2020/12/29 20:44:59;;;;;;;12.55;8.30;;;;;;;1.39;100.00;98887.72;10128844;29;20412;-76
2020/12/29 20:50:00;;;;;;;11.48;8.25;;;;;;;1.29;100.00;98886.31;10117948;29;20100;-75
2020/12/29 20:55:01;;;;;;;13.02;8.68;;;;;;;1.23;100.00;98889.13;10124298;29;20048;-76
2020/12/29 21:00:09;;;;;;;12.48;8.95;;;;;;;1.00;100.00;98884.72;10126186;29;20036;-76
2020/12/29 21:05:11;;;;;;;13.77;8.68;;;;;;;1.12;100.00;98910.25;10134197;29;20389;-76
2020/12/29 21:10:12;;;;;;;11.52;9.80;;;;;;;1.25;100.00;98917.63;10133684;29;20071;-75
2020/12/29 21:15:13;;;;;;;15.77;14.10;;;;;;;1.17;100.00;98914.44;10124838;29;20048;-76
2020/12/29 21:20:14;;;;;;;12.15;8.95;;;;;;;0.94;100.00;98907.41;10136101;29;20100;-75
2020/12/29 21:25:16;;;;;;;20.92;15.10;;;;;;;0.91;100.00;98925.66;10108098;29;20044;-75
2020/12/29 21:30:17;;;;;;;15.93;10.70;;;;;;;0.85;100.00;98925.84;10141427;29;20052;-76
2020/12/29 21:35:18;;;;;;;16.08;10.55;;;;;;;0.64;100.00;98923.03;10150343;29;20055;-76
2020/12/29 21:40:19;;;;;;;12.10;8.20;;;;;;;0.69;100.00;98941.88;10132440;29;20039;-76
2020/12/29 21:45:23;;;;;;;12.60;9.38;;;;;;;0.66;100.00;98949.75;10125039;29;20131;-76
2020/12/29 21:50:24;;;;;;;44.85;22.65;;;;;;;0.72;100.00;98962.53;10125694;29;20053;-75
2020/12/29 21:55:25;;;;;;;27.33;15.57;;;;;;;0.71;100.00;98973.78;10133987;29;20056;-76
2020/12/29 22:00:26;;;;;;;26.10;22.17;;;;;;;0.74;100.00;98980.63;10128415;29;20113;-76
2020/12/29 22:05:27;;;;;;;11.70;10.02;;;;;;;0.81;100.00;98991.66;10098853;29;20053;-76
2020/12/29 22:10:28;;;;;;;12.40;8.60;;;;;;;0.82;100.00;98989.00;10132164;29;20694;-76
2020/12/29 22:15:29;;;;;;;11.70;8.05;;;;;;;0.76;100.00;98986.59;10116103;29;20481;-76
2020/12/29 22:20:31;;;;;;;10.45;7.80;;;;;;;0.87;100.00;99002.66;10133786;29;20512;-76
2020/12/29 22:25:32;;;;;;;10.38;8.43;;;;;;;0.85;100.00;99003.59;10128410;29;20036;-76
2020/12/29 22:30:33;;;;;;;11.55;8.90;;;;;;;0.94;100.00;99014.53;10129635;29;20048;-76
2020/12/29 22:35:34;;;;;;;12.95;8.75;;;;;;;0.90;100.00;99002.59;10131774;29;20052;-76
2020/12/29 22:40:39;;;;;;;15.60;9.43;;;;;;;1.14;100.00;99024.31;10136438;29;20139;-76
2020/12/29 22:45:40;;;;;;;14.98;9.07;;;;;;;1.26;100.00;99038.59;10121356;29;20052;-75
2020/12/29 22:50:41;;;;;;;14.98;8.88;;;;;;;1.34;100.00;99042.66;10141942;29;20044;-75
2020/12/29 22:55:42;;;;;;;13.82;9.50;;;;;;;1.42;100.00;99050.22;10139357;29;20498;-76
2020/12/29 23:00:44;;;;;;;16.95;9.85;;;;;;;1.45;100.00;99042.31;10135759;29;20397;-76